createdAt,value
2022-11-13T00:00:48.093Z,991.24
2022-11-13T00:01:48.088Z,991.19
2022-11-13T00:02:48.135Z,991.17
2022-11-13T00:03:48.033Z,991.17
2022-11-13T00:04:48.013Z,991.20
2022-11-13T00:05:49.193Z,991.20
2022-11-13T00:06:48.087Z,991.21
2022-11-13T00:07:47.957Z,991.30
2022-11-13T00:08:48.106Z,991.26
2022-11-13T00:10:09.024Z,991.23
2022-11-13T00:11:58.133Z,991.23
2022-11-13T00:12:58.124Z,991.25
2022-11-13T00:13:58.128Z,991.24
2022-11-13T00:14:58.113Z,991.22
2022-11-13T00:15:58.124Z,991.16
2022-11-13T00:18:08.311Z,991.20
2022-11-13T00:19:08.313Z,991.17
2022-11-13T00:20:08.294Z,991.18
2022-11-13T00:21:08.287Z,991.18
2022-11-13T00:22:08.325Z,991.13
2022-11-13T00:23:10.318Z,991.16
2022-11-13T00:24:08.241Z,991.15
2022-11-13T00:25:08.204Z,991.09
2022-11-13T00:26:08.224Z,991.12
2022-11-13T00:27:08.225Z,991.19
2022-11-13T00:28:08.243Z,991.15
2022-11-13T00:29:08.273Z,991.17
2022-11-13T00:30:08.254Z,991.26
2022-11-13T00:31:08.153Z,991.16
2022-11-13T00:32:08.170Z,991.10
2022-11-13T00:33:08.164Z,991.12
2022-11-13T00:34:47.488Z,991.14
2022-11-13T00:35:09.075Z,991.14
2022-11-13T00:36:08.094Z,991.11
2022-11-13T00:37:08.045Z,991.08
2022-11-13T00:38:08.112Z,991.09
2022-11-13T00:39:08.146Z,991.17
2022-11-13T00:40:08.120Z,991.11
2022-11-13T00:41:08.025Z,991.13
2022-11-13T00:42:08.044Z,991.14
2022-11-13T00:43:08.035Z,991.09
2022-11-13T00:44:08.075Z,991.07
2022-11-13T00:45:08.068Z,991.14
2022-11-13T00:46:07.943Z,991.07
2022-11-13T00:47:28.963Z,991.11
2022-11-13T00:48:07.955Z,991.09
2022-11-13T00:49:08.018Z,991.08
2022-11-13T00:50:07.977Z,991.00
2022-11-13T00:51:07.986Z,991.04
2022-11-13T00:52:08.913Z,991.09
2022-11-13T00:53:07.901Z,991.05
2022-11-13T00:54:07.932Z,991.06
2022-11-13T00:55:07.917Z,991.07
2022-11-13T00:56:07.814Z,991.08
2022-11-13T00:57:07.802Z,991.07
2022-11-13T00:58:08.855Z,991.02
2022-11-13T00:59:07.866Z,991.04
2022-11-13T01:00:07.838Z,990.99
2022-11-13T01:01:07.860Z,991.03
2022-11-13T01:02:07.757Z,991.06
2022-11-13T01:03:07.758Z,991.09
2022-11-13T01:04:09.758Z,991.08
2022-11-13T01:05:07.777Z,991.07
2022-11-13T01:06:07.778Z,991.08
2022-11-13T01:07:07.774Z,991.06
2022-11-13T01:08:07.687Z,991.02
2022-11-13T01:09:08.662Z,991.05
2022-11-13T01:10:07.714Z,990.97
2022-11-13T01:11:07.715Z,990.92
2022-11-13T01:12:07.619Z,990.93
2022-11-13T01:13:07.598Z,990.98
2022-11-13T01:14:07.659Z,990.93
2022-11-13T01:15:07.572Z,990.95
2022-11-13T01:16:07.638Z,990.96
2022-11-13T01:17:07.547Z,990.94
2022-11-13T01:18:07.526Z,990.85
2022-11-13T01:19:07.609Z,990.88
2022-11-13T01:20:07.565Z,990.93
2022-11-13T01:21:07.576Z,990.93
2022-11-13T01:22:07.489Z,990.88
2022-11-13T01:23:07.491Z,990.86
2022-11-13T01:24:07.529Z,990.91
2022-11-13T01:25:07.509Z,990.91
2022-11-13T01:26:07.509Z,990.82
2022-11-13T01:27:07.431Z,990.91
2022-11-13T01:28:07.419Z,990.88
2022-11-13T01:29:07.473Z,990.83
2022-11-13T01:30:07.439Z,990.86
2022-11-13T01:31:07.447Z,990.80
2022-11-13T01:32:07.360Z,990.79
2022-11-13T01:33:07.357Z,990.78
2022-11-13T01:34:07.310Z,990.78
2022-11-13T01:35:07.370Z,990.79
2022-11-13T01:36:07.383Z,990.77
2022-11-13T01:37:07.282Z,990.82
2022-11-13T01:38:07.289Z,990.70
2022-11-13T01:39:07.250Z,990.70
2022-11-13T01:40:07.310Z,990.70
2022-11-13T01:41:07.311Z,990.68
2022-11-13T01:42:07.220Z,990.70
2022-11-13T01:43:07.231Z,990.63
2022-11-13T01:44:07.179Z,990.67
2022-11-13T01:45:07.241Z,990.60
2022-11-13T01:46:07.143Z,990.60
2022-11-13T01:47:07.131Z,990.55
2022-11-13T01:48:07.134Z,990.54
2022-11-13T01:49:07.111Z,990.55
2022-11-13T01:50:07.092Z,990.52
2022-11-13T01:51:07.171Z,990.54
2022-11-13T01:52:07.078Z,990.49
2022-11-13T01:53:07.060Z,990.51
2022-11-13T01:54:07.051Z,990.49
2022-11-13T01:55:07.031Z,990.38
2022-11-13T01:56:07.110Z,990.40
2022-11-13T01:57:07.011Z,990.36
2022-11-13T01:58:07.013Z,990.39
2022-11-13T01:59:07.052Z,990.31
2022-11-13T02:00:07.038Z,990.36
2022-11-13T02:01:07.044Z,990.30
2022-11-13T02:02:06.976Z,990.38
2022-11-13T02:03:06.957Z,990.31
2022-11-13T02:04:06.915Z,990.33
2022-11-13T02:05:06.891Z,990.31
2022-11-13T02:06:06.963Z,990.27
2022-11-13T02:07:07.014Z,990.28
2022-11-13T02:08:06.881Z,990.25
2022-11-13T02:09:06.922Z,990.25
2022-11-13T02:10:06.833Z,990.19
2022-11-13T02:11:06.902Z,990.26
2022-11-13T02:12:07.831Z,990.16
2022-11-13T02:13:06.833Z,990.19
2022-11-13T02:14:06.793Z,990.13
2022-11-13T02:15:06.784Z,990.12
2022-11-13T02:16:06.834Z,990.08
2022-11-13T02:17:06.861Z,990.05
2022-11-13T02:18:06.744Z,990.08
2022-11-13T02:19:06.786Z,990.01
2022-11-13T02:20:06.693Z,989.99
2022-11-13T02:21:06.789Z,989.95
2022-11-13T02:22:06.774Z,989.98
2022-11-13T02:23:06.699Z,989.96
2022-11-13T02:24:06.726Z,989.91
2022-11-13T02:25:06.701Z,989.86
2022-11-13T02:26:06.703Z,989.84
2022-11-13T02:27:06.715Z,989.87
2022-11-13T02:28:06.614Z,989.85
2022-11-13T02:29:07.664Z,989.86
2022-11-13T02:30:07.585Z,989.91
2022-11-13T02:31:06.636Z,989.85
2022-11-13T02:32:06.645Z,989.81
2022-11-13T02:33:06.546Z,989.82
2022-11-13T02:34:06.536Z,989.82
2022-11-13T02:35:06.539Z,989.79
2022-11-13T02:36:08.545Z,989.79
2022-11-13T02:37:06.575Z,989.83
2022-11-13T02:38:06.583Z,989.74
2022-11-13T02:39:06.465Z,989.79
2022-11-13T02:40:06.447Z,989.77
2022-11-13T02:41:06.505Z,989.73
2022-11-13T02:42:06.516Z,989.76
2022-11-13T02:43:06.514Z,989.71
2022-11-13T02:44:06.447Z,989.75
2022-11-13T02:45:06.438Z,989.74
2022-11-13T02:46:06.433Z,989.73
2022-11-13T02:47:06.435Z,989.74
2022-11-13T02:48:06.446Z,989.73
2022-11-13T02:49:07.407Z,989.74
2022-11-13T02:50:06.328Z,989.72
2022-11-13T02:51:06.314Z,989.67
2022-11-13T02:52:06.367Z,989.72
2022-11-13T02:53:06.376Z,989.75
2022-11-13T02:54:06.319Z,989.71
2022-11-13T02:55:06.277Z,989.65
2022-11-13T02:56:06.300Z,989.58
2022-11-13T02:57:06.304Z,989.60
2022-11-13T02:58:06.307Z,989.60
2022-11-13T02:59:06.247Z,989.63
2022-11-13T03:00:10.642Z,989.52
2022-11-13T03:01:07.246Z,989.60
2022-11-13T03:02:06.317Z,989.57
2022-11-13T03:03:07.156Z,989.52
2022-11-13T03:04:06.192Z,989.53
2022-11-13T03:05:12.002Z,989.53
2022-11-13T03:06:07.187Z,989.54
2022-11-13T03:07:06.225Z,989.48
2022-11-13T03:08:06.186Z,989.50
2022-11-13T03:09:06.107Z,989.42
2022-11-13T03:10:06.087Z,989.47
2022-11-13T03:11:06.098Z,989.47
2022-11-13T03:12:06.047Z,989.40
2022-11-13T03:13:06.116Z,989.45
2022-11-13T03:14:06.056Z,989.39
2022-11-13T03:15:05.997Z,989.44
2022-11-13T03:16:06.034Z,989.44
2022-11-13T03:17:05.970Z,989.44
2022-11-13T03:18:06.039Z,989.47
2022-11-13T03:19:05.966Z,989.47
2022-11-13T03:20:05.956Z,989.37
2022-11-13T03:21:05.970Z,989.38
2022-11-13T03:22:05.970Z,989.39
2022-11-13T03:23:05.969Z,989.37
2022-11-13T03:24:05.920Z,989.43
2022-11-13T03:25:10.258Z,989.36
2022-11-13T03:26:06.918Z,989.36
2022-11-13T03:27:05.838Z,989.28
2022-11-13T03:28:05.839Z,989.23
2022-11-13T03:29:05.847Z,989.36
2022-11-13T03:30:05.821Z,989.31
2022-11-13T03:31:05.818Z,989.34
2022-11-13T03:32:05.807Z,989.28
2022-11-13T03:33:05.827Z,989.33
2022-11-13T03:34:05.886Z,989.30
2022-11-13T03:35:05.847Z,989.30
2022-11-13T03:36:05.728Z,989.29
2022-11-13T03:37:05.757Z,989.33
2022-11-13T03:38:05.768Z,989.31
2022-11-13T03:39:05.799Z,989.32
2022-11-13T03:40:05.789Z,989.28
2022-11-13T03:41:05.690Z,989.31
2022-11-13T03:42:05.698Z,989.32
2022-11-13T03:43:05.649Z,989.35
2022-11-13T03:44:05.697Z,989.34
2022-11-13T03:45:05.717Z,989.32
2022-11-13T03:46:05.618Z,989.31
2022-11-13T03:47:05.618Z,989.29
2022-11-13T03:48:05.605Z,989.31
2022-11-13T03:49:05.635Z,989.31
2022-11-13T04:03:15.613Z,989.32
2022-11-13T04:04:15.702Z,989.30
2022-11-13T04:05:21.514Z,989.29
2022-11-13T04:06:16.610Z,989.28
2022-11-13T04:07:15.612Z,989.31
2022-11-13T04:08:17.571Z,989.30
2022-11-13T04:09:15.557Z,989.28
2022-11-13T04:10:15.511Z,989.28
2022-11-13T04:11:15.505Z,989.28
2022-11-13T04:12:15.481Z,989.20
2022-11-13T04:13:15.472Z,989.24
2022-11-13T04:14:15.462Z,989.23
2022-11-13T04:15:15.442Z,989.19
2022-11-13T04:16:15.443Z,989.16
2022-11-13T04:17:15.459Z,989.07
2022-11-13T04:18:15.459Z,989.12
2022-11-13T04:19:15.494Z,989.07
2022-11-13T04:20:15.480Z,989.13
2022-11-13T04:21:15.381Z,989.09
2022-11-13T04:22:15.397Z,989.03
2022-11-13T04:23:15.402Z,989.05
2022-11-13T04:24:15.332Z,989.03
2022-11-13T04:25:15.415Z,989.12
2022-11-13T04:26:15.416Z,989.05
2022-11-13T04:27:15.324Z,989.05
2022-11-13T04:28:15.312Z,989.10
2022-11-13T04:29:15.363Z,989.01
2022-11-13T04:30:15.345Z,989.07
2022-11-13T04:31:15.352Z,989.05
2022-11-13T04:32:15.262Z,989.04
2022-11-13T04:33:15.252Z,989.03
2022-11-13T04:34:15.283Z,989.02
2022-11-13T04:35:15.281Z,989.03
2022-11-13T04:36:15.279Z,989.02
2022-11-13T04:37:16.216Z,988.99
2022-11-13T04:38:15.187Z,988.96
2022-11-13T04:39:15.222Z,988.97
2022-11-13T04:40:15.121Z,988.98
2022-11-13T04:41:15.214Z,988.98
2022-11-13T04:42:15.112Z,988.98
2022-11-13T04:43:15.120Z,989.00
2022-11-13T04:44:15.154Z,989.00
2022-11-13T04:45:15.067Z,988.94
2022-11-13T04:46:15.132Z,988.94
2022-11-13T04:47:15.044Z,988.92
2022-11-13T04:48:15.043Z,988.92
2022-11-13T04:49:15.096Z,988.90
2022-11-13T04:50:15.062Z,988.91
2022-11-13T04:51:15.093Z,988.90
2022-11-13T04:52:14.992Z,988.90
2022-11-13T04:53:14.992Z,988.94
2022-11-13T04:54:14.950Z,988.89
2022-11-13T04:55:14.931Z,988.89
2022-11-13T04:56:15.015Z,988.88
2022-11-13T04:57:15.022Z,988.88
2022-11-13T04:58:14.917Z,988.86
2022-11-13T04:59:14.962Z,988.84
2022-11-13T05:00:14.960Z,988.84
2022-11-13T05:01:14.963Z,988.82
2022-11-13T05:02:14.956Z,988.90
2022-11-13T05:03:14.891Z,988.86
2022-11-13T05:04:14.892Z,988.82
2022-11-13T05:05:14.863Z,988.86
2022-11-13T05:06:14.799Z,988.80
2022-11-13T05:07:14.915Z,988.85
2022-11-13T05:08:15.792Z,988.85
2022-11-13T05:09:14.813Z,988.81
2022-11-13T05:10:14.782Z,988.79
2022-11-13T05:11:14.804Z,988.78
2022-11-13T05:12:15.722Z,988.81
2022-11-13T05:13:14.722Z,988.80
2022-11-13T05:14:14.756Z,988.84
2022-11-13T05:15:14.724Z,988.80
2022-11-13T05:16:14.722Z,988.86
2022-11-13T05:17:35.731Z,988.77
2022-11-13T05:18:14.643Z,988.79
2022-11-13T05:19:15.704Z,988.71
2022-11-13T05:20:14.656Z,988.73
2022-11-13T05:21:14.668Z,988.73
2022-11-13T05:22:14.671Z,988.72
2022-11-13T05:23:14.673Z,988.71
2022-11-13T05:24:14.625Z,988.72
2022-11-13T05:25:14.589Z,988.74
2022-11-13T05:26:14.592Z,988.82
2022-11-13T05:27:17.573Z,988.79
2022-11-13T05:28:14.612Z,988.81
2022-11-13T05:29:14.547Z,988.76
2022-11-13T05:30:14.531Z,988.76
2022-11-13T05:31:14.533Z,988.77
2022-11-13T05:32:14.480Z,988.78
2022-11-13T05:33:14.541Z,988.70
2022-11-13T05:34:14.484Z,988.72
2022-11-13T05:36:24.662Z,988.74
2022-11-13T05:37:24.633Z,988.70
2022-11-13T05:38:24.724Z,988.67
2022-11-13T05:39:24.652Z,988.67
2022-11-13T05:40:24.648Z,988.63
2022-11-13T05:41:24.641Z,988.62
2022-11-13T05:42:24.644Z,988.59
2022-11-13T05:43:24.652Z,988.54
2022-11-13T05:44:24.592Z,988.55
2022-11-13T05:45:24.554Z,988.53
2022-11-13T05:47:34.760Z,988.54
2022-11-13T05:48:34.821Z,988.48
2022-11-13T05:49:34.771Z,988.50
2022-11-13T05:50:34.727Z,988.43
2022-11-13T05:51:34.736Z,988.44
2022-11-13T05:52:34.747Z,988.42
2022-11-13T05:53:34.796Z,988.40
2022-11-13T05:54:34.758Z,988.38
2022-11-13T05:55:34.666Z,988.36
2022-11-13T05:56:34.655Z,988.39
2022-11-13T05:57:34.626Z,988.41
2022-11-13T05:58:34.715Z,988.40
2022-11-13T05:59:34.697Z,988.38
2022-11-13T06:00:34.578Z,988.35
2022-11-13T06:01:34.653Z,988.31
2022-11-13T06:02:34.608Z,988.30
2022-11-13T06:03:34.617Z,988.37
2022-11-13T06:04:34.550Z,988.28
2022-11-13T06:05:34.527Z,988.28
2022-11-13T06:06:34.579Z,988.37
2022-11-13T06:07:34.547Z,988.33
2022-11-13T06:08:34.496Z,988.36
2022-11-13T06:09:35.529Z,988.32
2022-11-13T06:10:35.485Z,988.27
2022-11-13T06:11:34.475Z,988.34
2022-11-13T06:12:34.474Z,988.32
2022-11-13T06:13:34.477Z,988.23
2022-11-13T06:14:34.517Z,988.29
2022-11-13T06:15:35.427Z,988.28
2022-11-13T06:16:34.407Z,988.28
2022-11-13T06:17:34.407Z,988.27
2022-11-13T06:18:34.732Z,988.36
2022-11-13T06:19:34.356Z,988.31
2022-11-13T06:20:34.428Z,988.28
2022-11-13T06:21:35.359Z,988.30
2022-11-13T06:22:34.339Z,988.24
2022-11-13T06:23:34.391Z,988.23
2022-11-13T06:24:34.351Z,988.26
2022-11-13T06:25:34.268Z,988.31
2022-11-13T06:26:34.268Z,988.34
2022-11-13T06:27:34.279Z,988.29
2022-11-13T06:28:34.323Z,988.37
2022-11-13T06:29:34.222Z,988.26
2022-11-13T06:30:34.289Z,988.31
2022-11-13T06:31:34.299Z,988.36
2022-11-13T06:32:34.218Z,988.33
2022-11-13T06:33:34.182Z,988.35
2022-11-13T06:34:34.157Z,988.33
2022-11-13T06:35:34.232Z,988.39
2022-11-13T06:36:34.230Z,988.35
2022-11-13T06:37:34.909Z,988.26
2022-11-13T06:38:34.196Z,988.29
2022-11-13T06:39:34.107Z,988.21
2022-11-13T06:40:34.159Z,988.19
2022-11-13T06:41:34.171Z,988.17
2022-11-13T06:42:34.069Z,988.20
2022-11-13T06:43:34.120Z,988.22
2022-11-13T06:44:34.079Z,988.21
2022-11-13T06:45:34.021Z,988.28
2022-11-13T06:46:34.098Z,988.25
2022-11-13T06:47:34.010Z,988.32
2022-11-13T06:48:35.070Z,988.32
2022-11-13T06:49:35.048Z,988.45
2022-11-13T06:50:33.949Z,988.39
2022-11-13T06:51:34.044Z,988.43
2022-11-13T06:52:33.937Z,988.35
2022-11-13T06:53:33.979Z,988.28
2022-11-13T06:54:33.950Z,988.32
2022-11-13T06:55:54.878Z,988.26
2022-11-13T06:56:33.868Z,988.27
2022-11-13T06:57:33.974Z,988.24
2022-11-13T06:58:33.914Z,988.31
2022-11-13T06:59:33.878Z,988.33
2022-11-13T07:00:37.112Z,988.36
2022-11-13T07:01:34.008Z,988.41
2022-11-13T07:02:33.909Z,988.39
2022-11-13T07:03:33.831Z,988.39
2022-11-13T07:04:33.809Z,988.33
2022-11-13T07:05:33.817Z,988.31
2022-11-13T07:06:39.049Z,988.31
2022-11-13T07:07:34.749Z,988.27
2022-11-13T07:08:33.769Z,988.20
2022-11-13T07:09:34.770Z,988.19
2022-11-13T07:10:33.748Z,988.18
2022-11-13T07:11:33.678Z,988.10
2022-11-13T07:12:33.759Z,988.05
2022-11-13T07:13:33.691Z,988.03
2022-11-13T07:14:33.679Z,987.99
2022-11-13T07:15:33.681Z,987.97
2022-11-13T07:16:50.119Z,987.94
2022-11-13T07:17:34.619Z,987.88
2022-11-13T07:18:33.638Z,987.94
2022-11-13T07:19:33.608Z,988.01
2022-11-13T07:20:33.610Z,987.95
2022-11-13T07:21:33.552Z,987.95
2022-11-13T07:22:33.551Z,987.97
2022-11-13T07:23:33.631Z,987.93
2022-11-13T07:24:34.608Z,987.96
2022-11-13T07:25:33.548Z,988.00
2022-11-13T07:26:33.561Z,988.12
2022-11-13T07:27:33.561Z,988.11
2022-11-13T07:28:33.510Z,988.06
2022-11-13T07:29:33.491Z,988.05
2022-11-13T07:30:33.490Z,988.01
2022-11-13T07:31:33.491Z,988.05
2022-11-13T07:32:33.411Z,988.02
2022-11-13T07:33:33.429Z,987.97
2022-11-13T07:34:33.424Z,987.98
2022-11-13T07:35:33.419Z,987.95
2022-11-13T07:36:33.422Z,987.99
2022-11-13T07:37:33.347Z,987.91
2022-11-13T07:38:33.374Z,987.88
2022-11-13T07:39:33.345Z,987.88
2022-11-13T07:40:34.381Z,987.87
2022-11-13T07:41:33.350Z,987.83
2022-11-13T07:42:33.371Z,987.86
2022-11-13T07:43:33.402Z,987.78
2022-11-13T07:44:53.628Z,987.75
2022-11-13T07:45:34.306Z,987.80
2022-11-13T07:46:33.302Z,987.80
2022-11-13T07:47:33.310Z,987.73
2022-11-13T07:48:33.337Z,987.73
2022-11-13T07:49:33.300Z,987.69
2022-11-13T07:50:33.228Z,987.76
2022-11-13T07:51:54.229Z,987.77
2022-11-13T07:52:33.161Z,987.83
2022-11-13T07:53:33.150Z,987.83
2022-11-13T07:54:33.130Z,987.76
2022-11-13T07:55:34.169Z,987.75
2022-11-13T07:56:33.150Z,987.75
2022-11-13T07:57:33.160Z,987.69
2022-11-13T07:58:33.099Z,987.70
2022-11-13T07:59:33.171Z,987.69
2022-11-13T08:00:33.081Z,987.70
2022-11-13T08:01:35.208Z,987.71
2022-11-13T08:02:33.090Z,987.64
2022-11-13T08:03:33.021Z,987.60
2022-11-13T08:04:34.061Z,987.52
2022-11-13T08:05:33.011Z,987.47
2022-11-13T08:06:32.995Z,987.55
2022-11-13T08:07:33.021Z,987.51
2022-11-13T08:08:33.041Z,987.51
2022-11-13T08:09:32.961Z,987.57
2022-11-13T08:10:32.950Z,987.51
2022-11-13T08:11:32.911Z,987.50
2022-11-13T08:12:32.959Z,987.49
2022-11-13T08:13:32.961Z,987.45
2022-11-13T08:14:32.886Z,987.47
2022-11-13T08:15:32.869Z,987.43
2022-11-13T08:16:32.890Z,987.52
2022-11-13T08:17:32.890Z,987.47
2022-11-13T08:18:32.900Z,987.50
2022-11-13T08:19:32.829Z,987.37
2022-11-13T08:20:34.882Z,987.40
2022-11-13T08:21:32.812Z,987.45
2022-11-13T08:22:32.838Z,987.38
2022-11-13T08:23:32.825Z,987.38
2022-11-13T08:24:32.761Z,987.44
2022-11-13T08:25:32.841Z,987.49
2022-11-13T08:26:32.753Z,987.45
2022-11-13T08:27:32.712Z,987.38
2022-11-13T08:28:32.764Z,987.27
2022-11-13T08:29:32.789Z,987.23
2022-11-13T08:30:32.776Z,987.22
2022-11-13T08:31:32.651Z,987.16
2022-11-13T08:32:32.684Z,987.15
2022-11-13T08:33:32.721Z,987.12
2022-11-13T08:34:32.701Z,987.06
2022-11-13T08:35:32.636Z,986.96
2022-11-13T08:36:32.611Z,986.95
2022-11-13T08:37:53.612Z,986.90
2022-11-13T08:38:32.661Z,986.84
2022-11-13T08:39:32.634Z,986.74
2022-11-13T08:40:32.532Z,986.73
2022-11-13T08:41:32.533Z,986.72
2022-11-13T08:42:53.562Z,986.65
2022-11-13T08:43:32.581Z,986.63
2022-11-13T08:44:32.561Z,986.61
2022-11-13T08:45:32.496Z,986.59
2022-11-13T08:46:32.485Z,986.61
2022-11-13T08:47:32.479Z,986.70
2022-11-13T08:48:32.572Z,986.66
2022-11-13T08:49:32.493Z,986.54
2022-11-13T08:50:32.509Z,986.49
2022-11-13T08:51:32.412Z,986.52
2022-11-13T08:52:32.412Z,986.43
2022-11-13T08:53:32.443Z,986.43
2022-11-13T08:54:32.439Z,986.42
2022-11-13T08:55:32.423Z,986.48
2022-11-13T08:56:32.444Z,986.49
2022-11-13T08:57:32.344Z,986.47
2022-11-13T08:58:32.732Z,986.46
2022-11-13T08:59:32.355Z,986.41
2022-11-13T09:00:32.375Z,986.37
2022-11-13T09:01:32.375Z,986.34
2022-11-13T09:02:32.283Z,986.33
2022-11-13T09:03:32.395Z,986.30
2022-11-13T09:04:32.294Z,986.40
2022-11-13T09:05:34.946Z,986.39
2022-11-13T09:06:32.206Z,986.31
2022-11-13T09:07:32.252Z,986.34
2022-11-13T09:08:32.253Z,986.33
2022-11-13T09:09:32.216Z,986.28
2022-11-13T09:10:32.245Z,986.21
2022-11-13T09:11:33.159Z,986.27
2022-11-13T09:12:32.143Z,986.23
2022-11-13T09:13:32.174Z,986.22
2022-11-13T09:14:32.157Z,986.18
2022-11-13T09:15:32.156Z,986.26
2022-11-13T09:16:32.175Z,986.29
2022-11-13T09:17:32.077Z,986.19
2022-11-13T09:18:32.251Z,986.19
2022-11-13T09:19:32.085Z,986.31
2022-11-13T09:20:32.095Z,986.15
2022-11-13T09:21:32.098Z,986.24
2022-11-13T09:22:32.003Z,986.20
2022-11-13T09:23:36.236Z,986.26
2022-11-13T09:24:33.037Z,986.22
2022-11-13T09:25:37.065Z,986.26
2022-11-13T09:26:32.958Z,986.19
2022-11-13T09:27:31.916Z,986.22
2022-11-13T09:28:32.147Z,986.22
2022-11-13T09:29:31.977Z,986.14
2022-11-13T09:30:31.968Z,986.17
2022-11-13T09:31:31.957Z,986.13
2022-11-13T09:32:31.879Z,986.19
2022-11-13T09:33:31.885Z,986.22
2022-11-13T09:34:31.915Z,986.10
2022-11-13T09:35:31.888Z,986.13
2022-11-13T09:36:31.896Z,986.16
2022-11-13T09:37:31.797Z,986.06
2022-11-13T09:38:32.272Z,986.15
2022-11-13T09:39:31.838Z,986.15
2022-11-13T09:40:31.826Z,986.09
2022-11-13T09:41:31.829Z,986.03
2022-11-13T09:42:52.839Z,986.14
2022-11-13T09:43:58.199Z,986.08
2022-11-13T09:44:32.693Z,986.03
2022-11-13T09:45:32.779Z,986.05
2022-11-13T09:46:31.662Z,986.01
2022-11-13T09:47:31.653Z,985.98
2022-11-13T10:04:14.296Z,985.89
2022-11-13T10:05:11.518Z,985.87
2022-11-13T10:06:11.440Z,985.87
2022-11-13T10:07:11.467Z,985.72
2022-11-13T10:08:11.454Z,985.79
2022-11-13T10:09:11.411Z,985.75
2022-11-13T10:10:11.459Z,985.83
2022-11-13T10:11:11.368Z,985.81
2022-11-13T10:12:11.470Z,985.79
2022-11-13T10:13:11.383Z,985.78
2022-11-13T10:14:11.411Z,985.80
2022-11-13T10:15:11.389Z,985.86
2022-11-13T10:16:11.392Z,985.78
2022-11-13T10:17:11.392Z,985.81
2022-11-13T10:18:11.319Z,985.80
2022-11-13T10:19:11.343Z,985.82
2022-11-13T10:20:11.313Z,985.77
2022-11-13T10:21:11.323Z,985.76
2022-11-13T10:22:32.292Z,985.73
2022-11-13T10:23:12.206Z,985.79
2022-11-13T10:24:14.263Z,985.73
2022-11-13T10:25:11.193Z,985.71
2022-11-13T10:26:34.213Z,985.69
2022-11-13T10:27:11.274Z,985.70
2022-11-13T10:28:35.079Z,985.62
2022-11-13T10:29:12.270Z,985.58
2022-11-13T10:30:11.122Z,985.59
2022-11-13T10:31:11.194Z,985.52
2022-11-13T10:32:11.199Z,985.56
2022-11-13T10:33:11.103Z,985.54
2022-11-13T10:34:11.073Z,985.54
2022-11-13T10:35:11.118Z,985.45
2022-11-13T10:36:11.117Z,985.45
2022-11-13T10:37:11.139Z,985.46
2022-11-13T10:38:11.078Z,985.42
2022-11-13T10:39:11.321Z,985.47
2022-11-13T10:40:12.040Z,985.49
2022-11-13T10:41:11.058Z,985.52
2022-11-13T10:42:11.059Z,985.48
2022-11-13T10:43:12.029Z,985.37
2022-11-13T10:44:10.969Z,985.31
2022-11-13T10:45:12.419Z,985.31
2022-11-13T10:46:10.918Z,985.29
2022-11-13T10:47:10.990Z,985.34
2022-11-13T10:48:10.919Z,985.21
2022-11-13T10:50:22.105Z,985.09
2022-11-13T10:51:22.095Z,985.10
2022-11-13T10:52:22.085Z,985.03
2022-11-13T10:53:22.125Z,985.03
2022-11-13T10:54:22.101Z,984.94
2022-11-13T10:55:22.062Z,984.92
2022-11-13T10:56:22.116Z,984.82
2022-11-13T10:57:22.026Z,984.81
2022-11-13T10:58:22.069Z,984.76
2022-11-13T10:59:22.046Z,984.81
2022-11-13T11:01:32.274Z,984.72
2022-11-13T11:02:32.200Z,984.70
2022-11-13T11:03:32.221Z,984.86
2022-11-13T11:04:32.211Z,984.79
2022-11-13T11:05:32.201Z,984.88
2022-11-13T11:06:48.974Z,984.78
2022-11-13T11:07:33.211Z,984.71
2022-11-13T11:08:32.429Z,984.83
2022-11-13T11:09:32.101Z,984.77
2022-11-13T11:10:32.141Z,984.82
2022-11-13T11:11:33.171Z,984.79
2022-11-13T11:12:33.093Z,984.84
2022-11-13T11:13:32.053Z,984.76
2022-11-13T11:14:32.073Z,984.72
2022-11-13T11:15:32.084Z,984.69
2022-11-13T11:16:32.089Z,984.63
2022-11-13T11:17:33.006Z,984.62
2022-11-13T11:18:32.240Z,984.64
2022-11-13T11:19:33.124Z,984.60
2022-11-13T11:20:31.964Z,984.56
2022-11-13T11:21:31.946Z,984.55
2022-11-13T11:22:32.024Z,984.51
2022-11-13T11:23:32.957Z,984.43
2022-11-13T11:24:31.961Z,984.49
2022-11-13T11:25:31.936Z,984.43
2022-11-13T11:26:31.958Z,984.37
2022-11-13T11:27:31.955Z,984.37
2022-11-13T11:28:32.219Z,984.35
2022-11-13T11:29:33.945Z,984.29
2022-11-13T11:30:31.995Z,984.25
2022-11-13T11:31:31.838Z,984.27
2022-11-13T11:32:31.907Z,984.23
2022-11-13T11:33:31.953Z,984.27
2022-11-13T11:34:31.818Z,984.26
2022-11-13T11:35:31.818Z,984.16
2022-11-13T11:36:31.830Z,984.08
2022-11-13T11:37:31.822Z,984.05
2022-11-13T11:38:32.095Z,984.01
2022-11-13T11:39:31.833Z,984.00
2022-11-13T11:40:31.754Z,983.88
2022-11-13T11:41:31.754Z,983.84
2022-11-13T11:42:31.753Z,983.83
2022-11-13T11:43:31.804Z,983.79
2022-11-13T11:44:31.794Z,983.72
2022-11-13T11:45:31.665Z,983.74
2022-11-13T11:47:41.928Z,983.62
2022-11-13T11:48:42.000Z,983.64
2022-11-13T11:49:41.947Z,983.62
2022-11-13T11:50:41.862Z,983.61
2022-11-13T11:51:41.850Z,983.56
2022-11-13T11:52:41.803Z,983.50
2022-11-13T11:53:41.913Z,983.47
2022-11-13T11:54:41.870Z,983.49
2022-11-13T11:55:41.772Z,983.43
2022-11-13T11:56:41.801Z,983.38
2022-11-13T11:57:42.841Z,983.42
2022-11-13T11:58:41.833Z,983.39
2022-11-13T11:59:41.812Z,983.37
2022-11-13T12:00:41.823Z,983.37
2022-11-13T12:01:41.734Z,983.34
2022-11-13T12:02:41.732Z,983.30
2022-11-13T12:03:41.764Z,983.24
2022-11-13T12:04:41.791Z,983.28
2022-11-13T12:05:41.825Z,983.24
2022-11-13T12:06:41.709Z,983.27
2022-11-13T12:07:41.675Z,983.23
2022-11-13T12:08:42.714Z,983.19
2022-11-13T12:09:41.686Z,983.20
2022-11-13T12:10:41.695Z,983.16
2022-11-13T12:11:41.588Z,983.14
2022-11-13T12:12:41.598Z,983.13
2022-11-13T12:13:41.647Z,983.13
2022-11-13T12:14:41.553Z,983.20
2022-11-13T12:15:41.539Z,983.14
2022-11-13T12:16:41.622Z,983.10
2022-11-13T12:17:41.538Z,983.09
2022-11-13T12:18:41.559Z,983.09
2022-11-13T12:19:43.519Z,983.10
2022-11-13T12:20:41.539Z,983.09
2022-11-13T12:21:41.559Z,983.15
2022-11-13T12:22:41.470Z,983.05
2022-11-13T12:23:41.444Z,983.03
2022-11-13T12:24:41.479Z,983.04
2022-11-13T12:25:42.506Z,983.10
2022-11-13T12:26:41.502Z,983.08
2022-11-13T12:27:41.403Z,983.08
2022-11-13T12:28:41.456Z,983.09
2022-11-13T12:29:41.409Z,983.02
2022-11-13T12:30:41.421Z,983.04
2022-11-13T12:31:42.360Z,983.05
2022-11-13T12:32:41.322Z,983.02
2022-11-13T12:33:41.356Z,983.00
2022-11-13T12:34:41.363Z,982.99
2022-11-13T12:35:41.350Z,983.00
2022-11-13T12:37:03.393Z,983.00
2022-11-13T12:37:41.257Z,982.97
2022-11-13T12:38:41.318Z,982.95
2022-11-13T12:39:41.294Z,983.00
2022-11-13T12:40:44.535Z,982.94
2022-11-13T12:41:41.308Z,982.95
2022-11-13T12:42:42.218Z,982.93
2022-11-13T12:43:41.217Z,982.95
2022-11-13T12:44:41.228Z,982.96
2022-11-13T12:45:41.211Z,982.93
2022-11-13T12:46:41.238Z,982.97
2022-11-13T12:47:41.231Z,982.98
2022-11-13T12:48:41.163Z,982.92
2022-11-13T12:49:42.207Z,982.85
2022-11-13T12:50:41.181Z,982.90
2022-11-13T12:51:41.152Z,982.83
2022-11-13T12:52:41.064Z,982.73
2022-11-13T12:53:44.282Z,982.77
2022-11-13T12:54:41.083Z,982.77
2022-11-13T12:55:41.023Z,982.79
2022-11-13T12:56:41.079Z,982.86
2022-11-13T12:57:41.096Z,982.85
2022-11-13T12:58:41.006Z,982.87
2022-11-13T12:59:41.012Z,982.85
2022-11-13T13:00:41.014Z,982.81
2022-11-13T13:01:41.083Z,982.80
2022-11-13T13:02:41.052Z,982.83
2022-11-13T13:03:40.963Z,982.82
2022-11-13T13:04:40.944Z,982.87
2022-11-13T13:05:40.951Z,982.84